createdAt,value
2022-09-28T00:01:17.462Z,98731.11
2022-09-28T00:03:46.230Z,98727.15
2022-09-28T00:06:16.156Z,98726.09
2022-09-28T00:08:44.352Z,98722.22
2022-09-28T00:11:14.891Z,98724.39
2022-09-28T00:13:43.974Z,98723.48
2022-09-28T00:16:14.232Z,98719.02
2022-09-28T00:18:44.842Z,98715.05
2022-09-28T00:21:15.954Z,98717.98
2022-09-28T00:23:59.274Z,98714.00
2022-09-28T00:26:28.583Z,98716.05
2022-09-28T00:28:59.710Z,98715.39
2022-09-28T00:31:31.867Z,98712.48
2022-09-28T00:34:01.840Z,98716.30
2022-09-28T00:36:32.218Z,98715.35
2022-09-28T00:39:05.971Z,98713.02
2022-09-28T00:41:35.363Z,98711.39
2022-09-28T00:44:34.648Z,98708.40
2022-09-28T00:47:09.288Z,98703.84
2022-09-28T00:49:43.664Z,98705.45
2022-09-28T00:52:15.996Z,98698.96
2022-09-28T00:54:47.327Z,98695.52
2022-09-28T00:57:16.732Z,98699.64
2022-09-28T00:59:45.237Z,98702.13
2022-09-28T01:02:13.669Z,98704.35
2022-09-28T01:04:42.071Z,98702.00
2022-09-28T01:07:11.882Z,98702.66
2022-09-28T01:09:40.537Z,98702.45
2022-09-28T01:12:09.224Z,98702.12
2022-09-28T01:14:38.052Z,98699.61
2022-09-28T01:17:13.222Z,98696.99
2022-09-28T01:20:27.858Z,98696.43
2022-09-28T01:23:39.855Z,98699.48
2022-09-28T01:26:34.529Z,98695.02
2022-09-28T01:29:10.815Z,98693.95
2022-09-28T01:31:43.916Z,98687.39
2022-09-28T01:34:16.041Z,98689.82
2022-09-28T01:36:50.213Z,98688.56
2022-09-28T01:39:24.032Z,98688.40
2022-09-28T01:41:54.190Z,98691.84
2022-09-28T01:44:24.693Z,98693.70
2022-09-28T01:47:02.808Z,98693.02
2022-09-28T01:49:36.072Z,98697.66
2022-09-28T01:52:10.905Z,98697.17
2022-09-28T01:54:44.407Z,98699.70
2022-09-28T01:57:15.766Z,98696.30
2022-09-28T01:59:51.924Z,98697.11
2022-09-28T02:02:25.008Z,98695.73
2022-09-28T02:04:56.938Z,98692.03
2022-09-28T02:07:31.923Z,98694.95
2022-09-28T02:10:05.361Z,98702.79
2022-09-28T02:12:36.989Z,98704.58
2022-09-28T02:15:13.929Z,98705.91
2022-09-28T02:17:42.531Z,98711.31
2022-09-28T02:20:14.774Z,98709.42
2022-09-28T02:22:48.884Z,98716.70
2022-09-28T02:25:23.750Z,98725.23
2022-09-28T02:27:56.713Z,98728.16
2022-09-28T02:30:25.049Z,98725.38
2022-09-28T02:32:56.816Z,98727.69
2022-09-28T02:35:25.276Z,98730.40
2022-09-28T02:37:54.811Z,98730.09
2022-09-28T02:40:28.728Z,98729.73
2022-09-28T02:43:04.063Z,98728.05
2022-09-28T02:45:46.239Z,98725.41
2022-09-28T02:48:43.161Z,98718.78
2022-09-28T02:51:21.213Z,98722.45
2022-09-28T02:54:18.544Z,98724.59
2022-09-28T02:57:07.614Z,98726.80
2022-09-28T02:59:47.066Z,98731.02
2022-09-28T03:02:23.425Z,98728.02
2022-09-28T03:05:03.751Z,98723.33
2022-09-28T03:07:36.646Z,98718.62
2022-09-28T03:10:13.486Z,98718.80
2022-09-28T03:12:44.890Z,98714.27
2022-09-28T03:15:19.610Z,98717.52
2022-09-28T03:17:48.102Z,98714.88
2022-09-28T03:20:17.229Z,98705.52
2022-09-28T03:23:00.292Z,98702.69
2022-09-28T03:25:34.037Z,98701.05
2022-09-28T03:28:02.523Z,98700.05
2022-09-28T03:30:31.552Z,98701.58
2022-09-28T03:33:01.754Z,98699.31
2022-09-28T03:35:31.513Z,98700.37
2022-09-28T03:37:59.682Z,98698.06
2022-09-28T03:40:28.907Z,98707.45
2022-09-28T03:42:57.147Z,98704.84
2022-09-28T03:45:25.469Z,98701.89
2022-09-28T03:47:53.960Z,98701.54
2022-09-28T03:50:22.144Z,98701.70
2022-09-28T03:52:50.561Z,98703.89
2022-09-28T03:55:18.825Z,98698.20
2022-09-28T03:57:54.926Z,98697.18
2022-09-28T04:00:23.552Z,98696.86
2022-09-28T04:02:51.762Z,98699.75
2022-09-28T04:05:20.097Z,98704.01
2022-09-28T04:07:49.351Z,98701.98
2022-09-28T04:10:17.655Z,98703.35
2022-09-28T04:12:46.040Z,98698.06
2022-09-28T04:15:16.361Z,98699.51
2022-09-28T04:17:44.699Z,98699.56
2022-09-28T04:20:26.361Z,98701.48
2022-09-28T04:23:02.126Z,98698.42
2022-09-28T04:25:30.952Z,98703.45
2022-09-28T04:28:17.935Z,98698.98
2022-09-28T04:30:47.606Z,98700.67
2022-09-28T04:33:16.154Z,98704.44
2022-09-28T04:35:44.606Z,98709.11
2022-09-28T04:38:12.862Z,98706.86
2022-09-28T04:40:41.634Z,98704.77
2022-09-28T04:43:10.038Z,98700.70
2022-09-28T04:45:38.275Z,98701.10
2022-09-28T04:48:10.444Z,98702.86
2022-09-28T04:51:03.035Z,98699.52
2022-09-28T04:53:31.937Z,98702.09
2022-09-28T04:56:01.793Z,98694.17
2022-09-28T04:58:31.597Z,98695.03
2022-09-28T05:01:01.905Z,98699.67
2022-09-28T05:03:50.514Z,98698.89
2022-09-28T05:06:30.046Z,98695.61
2022-09-28T05:09:06.144Z,98700.27
2022-09-28T05:11:34.814Z,98696.08
2022-09-28T05:14:03.319Z,98690.80
2022-09-28T05:16:33.160Z,98691.10
2022-09-28T05:19:20.241Z,98692.77
2022-09-28T05:21:49.005Z,98689.81
2022-09-28T05:24:17.250Z,98691.96
2022-09-28T05:26:51.165Z,98691.86
2022-09-28T05:29:19.421Z,98688.83
2022-09-28T05:32:21.145Z,98689.90
2022-09-28T05:39:40.325Z,98692.35
2022-09-28T05:42:08.661Z,98690.58
2022-09-28T05:44:37.837Z,98692.27
2022-09-28T05:47:06.377Z,98691.92
2022-09-28T05:49:34.673Z,98686.39
2022-09-28T05:52:03.408Z,98686.09
2022-09-28T05:54:32.693Z,98684.90
2022-09-28T05:57:04.441Z,98688.84
2022-09-28T05:59:34.470Z,98691.92
2022-09-28T06:02:03.162Z,98695.62
2022-09-28T06:04:32.107Z,98697.54
2022-09-28T06:07:00.360Z,98693.55
2022-09-28T06:09:29.855Z,98692.70
2022-09-28T06:12:19.219Z,98693.23
2022-09-28T06:14:50.162Z,98688.26
2022-09-28T06:17:18.404Z,98681.11
2022-09-28T06:19:52.604Z,98684.13
2022-09-28T06:22:26.996Z,98679.47
2022-09-28T06:25:08.292Z,98678.64
2022-09-28T06:27:37.040Z,98683.45
2022-09-28T06:30:06.905Z,98681.32
2022-09-28T06:32:35.619Z,98685.02
2022-09-28T06:35:05.006Z,98677.88
2022-09-28T06:37:33.333Z,98681.27
2022-09-28T06:40:04.471Z,98680.04
2022-09-28T06:42:32.990Z,98677.13
2022-09-28T06:45:31.415Z,98676.86
2022-09-28T06:48:25.938Z,98679.45
2022-09-28T06:50:54.389Z,98685.48
2022-09-28T06:53:28.859Z,98684.46
2022-09-28T06:56:11.650Z,98689.63
2022-09-28T06:58:39.880Z,98687.77
2022-09-28T07:01:11.296Z,98692.11
2022-09-28T07:04:15.102Z,98689.01
2022-09-28T07:07:02.185Z,98696.09
2022-09-28T07:10:10.422Z,98693.05
2022-09-28T07:13:05.041Z,98691.52
2022-09-28T07:15:43.356Z,98695.50
2022-09-28T07:18:14.624Z,98693.87
2022-09-28T07:20:53.750Z,98691.83
2022-09-28T07:23:23.330Z,98692.27
2022-09-28T07:26:10.591Z,98691.73
2022-09-28T07:28:45.620Z,98691.71
2022-09-28T07:31:34.435Z,98685.61
2022-09-28T07:34:14.228Z,98685.07
2022-09-28T07:37:11.011Z,98682.49
2022-09-28T07:39:54.101Z,98684.60
2022-09-28T07:42:22.737Z,98681.91
2022-09-28T07:44:51.024Z,98684.27
2022-09-28T07:47:28.599Z,98683.15
2022-09-28T07:50:34.643Z,98682.73
2022-09-28T07:53:22.220Z,98679.91
2022-09-28T07:56:01.295Z,98681.21
2022-09-28T07:58:42.716Z,98680.34
2022-09-28T08:01:30.260Z,98678.77
2022-09-28T08:03:59.750Z,98685.25
2022-09-28T08:06:31.027Z,98684.98
2022-09-28T08:09:01.090Z,98687.42
2022-09-28T08:11:49.434Z,98690.61
2022-09-28T08:14:36.965Z,98683.85
2022-09-28T08:17:23.985Z,98690.94
2022-09-28T08:20:14.736Z,98694.08
2022-09-28T08:22:43.660Z,98700.06
2022-09-28T08:25:12.649Z,98701.26
2022-09-28T08:27:40.849Z,98702.61
2022-09-28T08:30:11.328Z,98695.64
2022-09-28T08:33:07.337Z,98695.44
2022-09-28T08:35:46.032Z,98691.98
2022-09-28T08:38:20.785Z,98698.64
2022-09-28T08:41:24.732Z,98689.45
2022-09-28T08:44:15.615Z,98684.30
2022-09-28T08:47:07.504Z,98684.80
2022-09-28T08:49:49.531Z,98684.17
2022-09-28T08:52:39.394Z,98682.84
2022-09-28T08:55:30.765Z,98678.75
2022-09-28T08:58:04.909Z,98678.13
2022-09-28T09:00:42.188Z,98679.23
2022-09-28T09:03:13.558Z,98679.81
2022-09-28T09:05:55.244Z,98673.44
2022-09-28T09:08:59.392Z,98669.70
2022-09-28T09:11:48.146Z,98667.08
2022-09-28T09:14:38.225Z,98664.04
2022-09-28T09:17:17.707Z,98661.35
2022-09-28T09:20:04.233Z,98659.44
2022-09-28T09:22:59.223Z,98657.30
2022-09-28T09:25:38.403Z,98657.56
2022-09-28T09:28:34.612Z,98649.16
2022-09-28T09:31:16.912Z,98647.48
2022-09-28T09:34:04.424Z,98648.58
2022-09-28T09:37:17.001Z,98651.42
2022-09-28T09:40:24.235Z,98652.01
2022-09-28T09:43:59.230Z,98647.87
2022-09-28T09:46:49.540Z,98643.95
2022-09-28T09:49:40.963Z,98642.45
2022-09-28T09:52:18.917Z,98639.05
2022-09-28T09:54:52.450Z,98642.43
2022-09-28T09:57:52.358Z,98640.92
2022-09-28T10:00:34.604Z,98646.60
2022-09-28T10:03:21.451Z,98645.14
2022-09-28T10:05:55.070Z,98648.25
2022-09-28T10:08:25.794Z,98647.38
2022-09-28T10:11:07.000Z,98644.13
2022-09-28T10:13:36.308Z,98642.02
2022-09-28T10:16:08.268Z,98640.30
2022-09-28T10:18:45.396Z,98642.71
2022-09-28T10:21:36.886Z,98637.41
2022-09-28T10:24:30.887Z,98641.13
2022-09-28T10:27:04.834Z,98642.34
2022-09-28T10:29:43.832Z,98638.48
2022-09-28T10:32:24.516Z,98639.84
2022-09-28T10:35:14.447Z,98637.71
2022-09-28T10:37:54.555Z,98631.48
2022-09-28T10:40:45.013Z,98624.11
2022-09-28T10:43:22.452Z,98624.30
2022-09-28T10:46:01.291Z,98628.30
2022-09-28T10:48:38.966Z,98626.88
2022-09-28T10:51:08.418Z,98625.95
2022-09-28T10:53:37.093Z,98624.83
2022-09-28T10:56:36.786Z,98626.38
2022-09-28T10:59:24.100Z,98618.91
2022-09-28T11:01:56.194Z,98617.66
2022-09-28T11:04:28.154Z,98620.23
2022-09-28T11:09:41.164Z,98620.09
2022-09-28T11:12:15.908Z,98620.23
2022-09-28T11:14:45.599Z,98617.67
2022-09-28T11:17:26.889Z,98615.89
2022-09-28T11:19:56.592Z,98622.60
2022-09-28T11:22:29.211Z,98624.11
2022-09-28T11:25:22.884Z,98622.44
2022-09-28T11:28:00.996Z,98623.77
2022-09-28T11:30:33.871Z,98624.06
2022-09-28T11:33:26.981Z,98622.05
2022-09-28T11:36:43.896Z,98625.52
2022-09-28T11:39:23.485Z,98628.46
2022-09-28T11:42:15.504Z,98625.55
2022-09-28T11:44:47.558Z,98625.58
2022-09-28T11:47:36.349Z,98629.86
2022-09-28T11:50:14.063Z,98623.11
2022-09-28T11:52:49.061Z,98622.35
2022-09-28T11:55:24.577Z,98622.23
2022-09-28T11:58:01.236Z,98623.88
2022-09-28T12:00:37.049Z,98619.57
2022-09-28T12:03:11.522Z,98619.32
2022-09-28T12:05:44.072Z,98614.92
2022-09-28T12:08:16.195Z,98618.16
2022-09-28T12:11:09.337Z,98610.76
2022-09-28T12:14:00.205Z,98614.77
2022-09-28T12:17:04.309Z,98614.66
2022-09-28T12:19:29.733Z,98612.94
2022-09-28T12:22:03.800Z,98612.23
2022-09-28T12:24:37.248Z,98608.61
2022-09-28T12:27:14.177Z,98603.74
2022-09-28T12:29:47.171Z,98600.89
2022-09-28T12:32:26.295Z,98604.48
2022-09-28T12:34:55.397Z,98601.27
2022-09-28T12:37:38.327Z,98601.90
2022-09-28T12:40:31.622Z,98598.19
2022-09-28T12:43:12.198Z,98599.02
2022-09-28T12:46:17.679Z,98597.90
2022-09-28T12:50:07.219Z,98598.22
2022-09-28T12:52:05.276Z,98595.10
2022-09-28T12:55:05.255Z,98596.20
2022-09-28T12:57:44.700Z,98596.45
2022-09-28T13:00:17.110Z,98592.73
2022-09-28T13:03:37.524Z,98596.88
2022-09-28T13:06:32.254Z,98593.23
2022-09-28T13:09:21.940Z,98595.39
2022-09-28T13:12:09.798Z,98595.25
2022-09-28T13:15:21.123Z,98594.46
2022-09-28T13:18:00.289Z,98598.75
2022-09-28T13:20:37.555Z,98592.36
2022-09-28T13:23:15.255Z,98593.98
2022-09-28T13:25:50.186Z,98591.44
2022-09-28T13:28:23.954Z,98587.77
2022-09-28T13:33:36.326Z,98587.90
2022-09-28T13:36:26.724Z,98585.14
2022-09-28T13:38:56.397Z,98581.82
2022-09-28T13:41:29.121Z,98583.06
2022-09-28T13:44:15.871Z,98581.15
2022-09-28T13:46:54.947Z,98582.41
2022-09-28T13:49:31.866Z,98579.94
2022-09-28T13:52:07.750Z,98582.17
2022-09-28T13:55:00.052Z,98578.80
2022-09-28T13:57:36.618Z,98579.35
2022-09-28T14:00:17.644Z,98579.56
2022-09-28T14:02:48.661Z,98585.30
2022-09-28T14:05:47.358Z,98580.21
2022-09-28T14:08:31.091Z,98583.96
2022-09-28T14:11:41.238Z,98586.48
2022-09-28T14:14:31.630Z,98597.41
2022-09-28T14:17:44.874Z,98607.52
2022-09-28T14:20:17.404Z,98624.29
2022-09-28T14:23:05.980Z,98623.31
2022-09-28T14:25:42.724Z,98627.97
2022-09-28T14:28:28.560Z,98629.61
2022-09-28T14:30:58.183Z,98632.80
2022-09-28T14:33:29.021Z,98628.21
2022-09-28T14:36:01.263Z,98635.71
2022-09-28T14:38:54.081Z,98640.34
2022-09-28T14:41:33.113Z,98638.48
2022-09-28T14:44:04.898Z,98642.52
2022-09-28T14:46:36.551Z,98639.25
2022-09-28T14:49:32.641Z,98638.31
2022-09-28T14:52:03.240Z,98638.94
2022-09-28T14:54:44.770Z,98636.39
2022-09-28T14:57:23.616Z,98636.62
2022-09-28T14:59:54.961Z,98635.88
2022-09-28T15:02:32.359Z,98630.30
2022-09-28T15:05:14.121Z,98626.19
2022-09-28T15:07:51.117Z,98628.78
2022-09-28T15:10:30.923Z,98630.01
2022-09-28T15:13:02.529Z,98626.36
2022-09-28T15:15:36.057Z,98624.36
2022-09-28T15:18:47.156Z,98624.34
2022-09-28T15:21:15.688Z,98615.98
2022-09-28T15:23:46.186Z,98610.80
2022-09-28T15:26:26.703Z,98612.14
2022-09-28T15:28:58.337Z,98611.59
2022-09-28T15:31:30.780Z,98607.70
2022-09-28T15:34:17.393Z,98616.02
2022-09-28T15:36:46.486Z,98616.11
2022-09-28T15:39:21.113Z,98616.84
2022-09-28T15:41:53.228Z,98620.98
2022-09-28T15:44:32.204Z,98616.92
2022-09-28T15:47:08.916Z,98617.98
2022-09-28T15:49:44.122Z,98618.11
2022-09-28T15:52:32.066Z,98621.13
2022-09-28T15:55:01.780Z,98625.60
2022-09-28T15:57:36.166Z,98622.61
2022-09-28T16:00:07.426Z,98627.30
2022-09-28T16:02:59.617Z,98627.90
2022-09-28T16:05:39.093Z,98632.30
2022-09-28T16:08:20.575Z,98632.96
2022-09-28T16:11:08.362Z,98630.10
2022-09-28T16:13:43.662Z,98634.39
2022-09-28T16:16:16.436Z,98632.39
2022-09-28T16:18:48.027Z,98632.92
2022-09-28T16:21:44.267Z,98639.32
2022-09-28T16:24:27.602Z,98637.19
2022-09-28T16:27:00.289Z,98640.45
2022-09-28T16:29:39.201Z,98644.41
2022-09-28T16:32:41.721Z,98648.56
2022-09-28T16:35:25.149Z,98648.63
2022-09-28T16:38:00.974Z,98646.66
2022-09-28T16:40:31.966Z,98649.55
2022-09-28T16:43:04.387Z,98652.31
2022-09-28T16:45:35.640Z,98648.11
2022-09-28T16:48:05.521Z,98649.75
2022-09-28T16:50:34.150Z,98650.36
2022-09-28T16:53:30.754Z,98655.41
2022-09-28T16:56:00.091Z,98658.48
2022-09-28T16:58:30.506Z,98661.29
2022-09-28T17:01:00.648Z,98661.39
2022-09-28T17:03:29.736Z,98657.55
2022-09-28T17:05:58.127Z,98656.00
2022-09-28T17:08:26.775Z,98651.97
2022-09-28T17:11:13.919Z,98647.61
2022-09-28T17:13:45.418Z,98648.58
2022-09-28T17:16:17.019Z,98650.06
2022-09-28T17:18:47.554Z,98654.62
2022-09-28T17:21:18.862Z,98654.11
2022-09-28T17:23:48.868Z,98655.86
2022-09-28T17:26:22.588Z,98651.63
2022-09-28T17:28:50.740Z,98659.48
2022-09-28T17:31:19.007Z,98663.07
2022-09-28T17:33:47.336Z,98664.52
2022-09-28T17:36:17.756Z,98666.86
2022-09-28T17:38:47.507Z,98667.59
2022-09-28T17:41:20.368Z,98668.27
2022-09-28T17:43:49.549Z,98668.61
2022-09-28T17:46:26.882Z,98666.50
2022-09-28T17:48:57.417Z,98666.70
2022-09-28T17:51:26.165Z,98669.27
2022-09-28T17:53:56.433Z,98672.89
2022-09-28T17:56:31.047Z,98670.17
2022-09-28T17:59:02.990Z,98672.11
2022-09-28T18:01:33.418Z,98676.90
2022-09-28T18:04:03.596Z,98676.21
2022-09-28T18:06:33.140Z,98676.10
2022-09-28T18:09:02.528Z,98681.48
2022-09-28T18:11:32.964Z,98680.70
2022-09-28T18:14:01.834Z,98676.66
2022-09-28T18:16:30.182Z,98682.48
2022-09-28T18:18:59.030Z,98684.73
2022-09-28T18:21:27.688Z,98689.61
2022-09-28T18:23:58.730Z,98696.79
2022-09-28T18:26:27.065Z,98699.14
2022-09-28T18:28:55.605Z,98700.92
2022-09-28T18:31:23.781Z,98701.41
2022-09-28T18:33:59.437Z,98700.35
2022-09-28T18:36:33.134Z,98699.96
2022-09-28T18:39:02.694Z,98703.44
2022-09-28T18:41:31.004Z,98700.77
2022-09-28T18:44:00.393Z,98706.08
2022-09-28T18:46:35.876Z,98706.55
2022-09-28T18:49:04.748Z,98704.30
2022-09-28T18:51:33.492Z,98698.35
2022-09-28T18:54:06.581Z,98705.11
2022-09-28T18:56:37.288Z,98713.20
2022-09-28T18:59:09.965Z,98716.88
2022-09-28T19:01:41.507Z,98717.64
2022-09-28T19:04:13.018Z,98716.98
2022-09-28T19:06:43.806Z,98719.55
2022-09-28T19:09:12.821Z,98719.85
2022-09-28T19:11:41.315Z,98720.67
2022-09-28T19:14:14.211Z,98718.83
2022-09-28T19:16:42.106Z,98719.95
2022-09-28T19:19:12.296Z,98718.66
2022-09-28T19:21:42.553Z,98721.58
2022-09-28T19:24:13.811Z,98726.33
2022-09-28T19:26:43.017Z,98727.80
2022-09-28T19:29:12.449Z,98730.98
2022-09-28T19:31:43.140Z,98736.06
2022-09-28T19:34:14.115Z,98732.11
2022-09-28T19:36:44.211Z,98733.98
2022-09-28T19:39:15.536Z,98735.31
2022-09-28T19:41:49.145Z,98734.44
2022-09-28T19:44:23.732Z,98733.55
2022-09-28T19:46:55.279Z,98737.63
2022-09-28T19:49:25.913Z,98739.30
2022-09-28T19:52:12.205Z,98736.25
2022-09-28T19:54:43.124Z,98738.70
2022-09-28T19:57:13.792Z,98739.18
2022-09-28T19:59:42.267Z,98741.80
2022-09-28T20:02:14.149Z,98743.27
2022-09-28T20:04:42.932Z,98749.25
2022-09-28T20:07:11.418Z,98752.17
2022-09-28T20:09:39.698Z,98754.05
2022-09-28T20:12:08.584Z,98754.83
2022-09-28T20:14:39.590Z,98759.73
2022-09-28T20:17:10.296Z,98759.23
2022-09-28T20:19:38.769Z,98760.99
2022-09-28T20:22:07.370Z,98764.48
2022-09-28T20:24:35.842Z,98766.52
2022-09-28T20:27:03.997Z,98768.73
2022-09-28T20:29:34.766Z,98774.52
2022-09-28T20:32:04.393Z,98775.16
2022-09-28T20:34:33.342Z,98782.94
2022-09-28T20:37:01.845Z,98779.22
2022-09-28T20:39:30.117Z,98773.75
2022-09-28T20:41:58.341Z,98782.95
2022-09-28T20:44:26.592Z,98779.56
2022-09-28T20:46:55.560Z,98784.09
2022-09-28T20:49:24.037Z,98787.82
2022-09-28T20:51:52.488Z,98790.00
2022-09-28T20:54:21.679Z,98791.33
2022-09-28T20:56:49.942Z,98792.95
2022-09-28T20:59:19.378Z,98796.70
2022-09-28T21:01:47.674Z,98802.83
2022-09-28T21:04:15.907Z,98798.28
2022-09-28T21:06:44.173Z,98802.15
2022-09-28T21:09:12.876Z,98803.16
2022-09-28T21:11:41.045Z,98807.21
2022-09-28T21:14:09.790Z,98800.39
2022-09-28T21:16:38.020Z,98802.88
2022-09-28T21:19:06.167Z,98803.20
2022-09-28T21:21:34.486Z,98805.05
2022-09-28T21:24:03.831Z,98812.02
2022-09-28T21:26:32.984Z,98813.38
2022-09-28T21:29:03.281Z,98818.19
2022-09-28T21:31:37.216Z,98824.42
2022-09-28T21:34:04.593Z,98829.23
2022-09-28T21:36:33.105Z,98828.62
2022-09-28T21:39:01.341Z,98833.19
2022-09-28T21:41:29.939Z,98833.27
2022-09-28T21:43:58.392Z,98833.80
2022-09-28T21:46:32.802Z,98832.95
2022-09-28T21:49:02.128Z,98833.66
2022-09-28T21:51:30.966Z,98837.53
2022-09-28T21:53:59.127Z,98839.14
2022-09-28T21:56:27.358Z,98847.00
2022-09-28T21:58:55.610Z,98847.91
2022-09-28T22:01:25.439Z,98851.94
2022-09-28T22:03:54.797Z,98856.23
2022-09-28T22:06:27.228Z,98857.02
2022-09-28T22:08:56.004Z,98858.05
2022-09-28T22:11:26.620Z,98861.48
2022-09-28T22:13:56.363Z,98865.66
2022-09-28T22:16:27.344Z,98865.29
2022-09-28T22:18:55.920Z,98866.90
2022-09-28T22:21:26.989Z,98865.70
2022-09-28T22:24:00.108Z,98869.41
2022-09-28T22:26:31.096Z,98869.13
2022-09-28T22:29:01.017Z,98872.21
2022-09-28T22:31:31.578Z,98872.75
2022-09-28T22:34:00.165Z,98874.20
2022-09-28T22:36:29.400Z,98881.06
2022-09-28T22:38:58.597Z,98883.60
2022-09-28T22:41:27.697Z,98888.39
2022-09-28T22:43:56.092Z,98893.91
2022-09-28T22:46:26.400Z,98893.61
2022-09-28T22:48:56.541Z,98900.04
2022-09-28T22:51:26.684Z,98901.13
2022-09-28T22:53:56.157Z,98900.95
2022-09-28T22:56:25.156Z,98898.55
2022-09-28T22:58:53.407Z,98901.44
2022-09-28T23:01:23.258Z,98903.79
2022-09-28T23:03:53.185Z,98910.02
2022-09-28T23:06:23.825Z,98912.11
2022-09-28T23:08:53.362Z,98912.89
2022-09-28T23:11:21.841Z,98914.25
2022-09-28T23:13:51.164Z,98914.84
2022-09-28T23:16:19.922Z,98914.98
2022-09-28T23:18:48.420Z,98919.66
2022-09-28T23:21:18.636Z,98918.27
2022-09-28T23:23:52.217Z,98922.77
2022-09-28T23:26:22.460Z,98927.59
2022-09-28T23:28:52.021Z,98930.50
2022-09-28T23:31:22.445Z,98932.81
2022-09-28T23:33:51.517Z,98928.28
2022-09-28T23:36:19.818Z,98930.05
2022-09-28T23:38:48.191Z,98929.55
2022-09-28T23:41:16.438Z,98936.30
2022-09-28T23:43:44.765Z,98937.77
2022-09-28T23:46:14.543Z,98937.48
2022-09-28T23:48:45.483Z,98935.59
2022-09-28T23:51:13.678Z,98936.73
2022-09-28T23:53:42.555Z,98943.38
2022-09-28T23:56:10.774Z,98937.96
2022-09-28T23:58:38.978Z,98937.18
